Monday, March 30, 2015
14:13 UTC
  |  Log In   |  Register Free
Airport Search:

Page Field Airport
(KFMY)

FAA data valid effective March 05, 2015 - April 30, 2015 (unless otherwise noted).

 
 
 
 
 
 
 
 
 
 
 
 
 
 

Current Aviation Weather for Page Field Airport (KFMY)

The most recent METAR observation for KFMY was updated at: 1409
METAR Summary (Translated METAR)
KFMY
251403Z 13003KT 5SM BR OVC003 20/20 A3012 RMK AO2 T02000200
KRSW
251353Z 05005KT 1SM BR OVC002 20/20 A3012 RMK AO2 SLP198 T02000200
(6.5 nm SE from KFMY)
KPGD
251353Z 12005KT 10SM OVC008 21/19 A3015 RMK AO2 SLP209 T02060189
(21.1 nm NW from KFMY)
TAF Summary (Translated TAF)
KFMY
251418Z 2514/2612 11004KT 4SM BR OVC003 TEMPO 2515/2516 P6SM NSW BKN008 FM251600 12005KT P6SM BKN018 FM251700 28006KT P6SM SCT025 FM252300 VRB03KT P6SM SCT250 FM260700 VRB03KT 5SM BR SCT010
KRSW
(6.5 nm SE from KFMY)
251307Z 2513/2612 10005KT 1/2SM FG VV002 TEMPO 2514/2516 3SM BR BKN008 FM251600 11005KT P6SM BKN018 FM251700 28006KT P6SM SCT025 FM252300 VRB03KT P6SM SCT250 FM260700 VRB03KT 5SM BR SCT010
  Airport Weather Conditions for KFMY

 Current Weather at FMY
57° F
Fair
East winds at 4.6 mph
FMY NOAA Radar

Pressure: 30.26 in
Humidity: 69%
Wind: East at 4.6 MPH (4 KT)
Dew Point: 46.9°F
Visibility: 10.00 mi


Airport Weather Forecast for KFMY

Translated METAR and TAF for KFMY
Translated METAR for KFMY (1413 UTC 30 March 2015)
found at http://aviationweather.gov/adds/metars/
 
METAR text: KFMY 301353Z 08005KT 10SM CLR 18/10 A3027 RMK AO2 SLP252 T01830100
Conditions at: KFMY (FORT MYERS , FL, US) observed 1353 UTC 30 March 2015
Temperature: 18.3°C (65°F)
Dewpoint: 10.0°C (50°F) [RH = 58%]
Pressure (altimeter): 30.27 inches Hg (1025.1 mb)
[Sea-level pressure: 1025.2 mb]
Winds: from the E (80 degrees) at 6 MPH (5 knots; 2.6 m/s)
Visibility: 10 or more miles (16+ km)
Ceiling: at least 12,000 feet AGL
Clouds: sky clear below 12,000 feet AGL
Weather: no significant weather observed at this time
Translated TAF for KFMY
Forecast for: KFMY (FORT MYERS , FL, US)
TAF Text: KFMY 301124Z 3012/3112 06004KT P6SM SKC
Forecast period: 1200 to 1800 UTC 30 March 2015
Forecast type: FROM: standard forecast or significant change
Winds: from the ENE (60 degrees) at 5 MPH (4 knots; 2.1 m/s)
Visibility: 6 or more miles (10+ km)
Clouds: clear skies
Weather: no significant weather forecast for this period
TAF Text: FM301800 32008KT P6SM FEW250
Forecast period: 1800 UTC 30 March 2015 to 0100 UTC 31 March 2015
Forecast type: FROM: standard forecast or significant change
Winds: from the NW (320 degrees) at 9 MPH (8 knots; 4.2 m/s)
Visibility: 6 or more miles (10+ km)
Clouds: few clouds at 25000 feet AGL
Weather: no significant weather forecast for this period
TAF Text: FM310100 34004KT P6SM FEW250
Forecast period: 0100 to 1200 UTC 31 March 2015
Forecast type: FROM: standard forecast or significant change
Winds: from the NNW (340 degrees) at 5 MPH (4 knots; 2.1 m/s)
Visibility: 6 or more miles (10+ km)
Clouds: few clouds at 25000 feet AGL
Weather: no significant weather forecast for this period

Find All Airport Services Find A Hotel Find A Rental Car Find A Golf Course Find A Restaurant $100 Hamburger



FBO's on the Field
FBO Company Facility Photos Services Transportation Aviation Fuel Prices: Prices include tax
Catering Weather Repair Courtesy Rental Type 100LL JetA JetA+ MOGAS 8087
 
Base Operations at Page Field

Currently rated 4.8 by 2 people
FS:Avfuel
Last Updated: Mar-17
Login to update fuel prices
SS:
Contact Base Operations at Page FieldMore FBO Information
 
Add another FBO Facility Photos Catering Weather Repair Courtesy Rental Type 100LL JetA JetA+ MOGAS 8087
Services Transportation Aviation Fuel Prices: Prices include tax


model-print
model-print
model-print
model-print